createdAt,value
2022-08-18T00:01:55.860Z,98120.16
2022-08-18T00:04:35.286Z,98121.78
2022-08-18T00:07:07.701Z,98119.84
2022-08-18T00:09:36.422Z,98107.09
2022-08-18T00:12:06.087Z,98095.00
2022-08-18T00:14:34.702Z,98100.88
2022-08-18T00:17:04.128Z,98107.09
2022-08-18T00:19:47.425Z,98101.06
2022-08-18T00:22:19.875Z,98111.66
2022-08-18T00:24:51.054Z,98107.56
2022-08-18T00:27:31.557Z,98118.84
2022-08-18T00:30:14.020Z,98115.25
2022-08-18T00:32:43.053Z,98112.47
2022-08-18T00:35:14.211Z,98122.13
2022-08-18T00:37:41.899Z,98122.44
2022-08-18T00:40:11.354Z,98104.47
2022-08-18T00:42:51.008Z,98108.38
2022-08-18T00:45:24.009Z,98115.75
2022-08-18T00:47:52.632Z,98103.00
2022-08-18T00:50:26.617Z,98103.19
2022-08-18T00:53:12.885Z,98101.06
2022-08-18T00:55:41.610Z,98102.72
2022-08-18T00:58:35.808Z,98101.72
2022-08-18T01:01:06.633Z,98111.66
2022-08-18T01:03:35.618Z,98102.03
2022-08-18T01:06:05.487Z,98097.28
2022-08-18T01:08:34.747Z,98095.66
2022-08-18T01:11:03.737Z,98097.78
2022-08-18T01:13:36.040Z,98098.13
2022-08-18T01:16:23.252Z,98100.69
2022-08-18T01:19:08.728Z,98100.38
2022-08-18T01:21:55.023Z,98102.84
2022-08-18T01:24:46.501Z,98104.47
2022-08-18T01:27:19.087Z,98095.97
2022-08-18T01:29:50.739Z,98103.44
2022-08-18T01:32:24.289Z,98101.50
2022-08-18T01:34:57.306Z,98097.59
2022-08-18T01:37:24.729Z,98102.03
2022-08-18T01:41:23.094Z,98100.06
2022-08-18T01:42:39.835Z,98101.72
2022-08-18T01:45:09.806Z,98090.63
2022-08-18T01:47:48.015Z,98089.59
2022-08-18T01:50:17.974Z,98082.91
2022-08-18T01:52:46.466Z,98081.25
2022-08-18T01:55:15.224Z,98066.09
2022-08-18T01:57:45.567Z,98084.38
2022-08-18T02:00:14.506Z,98088.78
2022-08-18T02:02:42.569Z,98083.56
2022-08-18T02:05:16.447Z,98082.91
2022-08-18T02:07:47.129Z,98076.06
2022-08-18T02:10:23.000Z,98066.41
2022-08-18T02:12:50.209Z,98066.91
2022-08-18T02:15:18.836Z,98050.28
2022-08-18T02:17:47.702Z,98055.19
2022-08-18T02:20:17.263Z,98047.00
2022-08-18T02:22:44.878Z,98047.97
2022-08-18T02:25:15.365Z,98050.59
2022-08-18T02:27:44.829Z,98055.81
2022-08-18T02:30:16.095Z,98056.13
2022-08-18T02:32:50.191Z,98056.81
2022-08-18T02:35:28.827Z,98060.53
2022-08-18T02:37:59.163Z,98054.00
2022-08-18T02:40:26.380Z,98063.63
2022-08-18T02:42:55.507Z,98068.69
2022-08-18T02:45:32.884Z,98079.66
2022-08-18T02:48:08.156Z,98074.41
2022-08-18T02:50:51.582Z,98071.47
2022-08-18T02:53:25.428Z,98072.47
2022-08-18T02:55:53.161Z,98072.91
2022-08-18T02:58:21.039Z,98071.94
2022-08-18T03:00:51.383Z,98079.66
2022-08-18T03:03:24.842Z,98079.44
2022-08-18T03:05:55.729Z,98086.97
2022-08-18T03:08:27.930Z,98089.09
2022-08-18T03:10:55.266Z,98094.66
2022-08-18T03:13:29.480Z,98084.19
2022-08-18T03:18:54.027Z,98100.84
2022-08-18T03:21:31.286Z,98100.19
2022-08-18T03:24:02.702Z,98105.88
2022-08-18T03:26:30.737Z,98112.72
2022-08-18T03:31:53.888Z,98112.72
2022-08-18T03:37:11.469Z,98109.78
2022-08-18T03:39:43.888Z,98104.75
2022-08-18T03:42:25.824Z,98108.34
2022-08-18T03:45:13.147Z,98090.19
2022-08-18T03:47:47.537Z,98103.63
2022-08-18T03:50:20.452Z,98100.63
2022-08-18T03:52:56.515Z,98100.75
2022-08-18T03:55:23.974Z,98106.38
2022-08-18T04:00:59.383Z,98122.19
2022-08-18T04:03:32.365Z,98116.44
2022-08-18T04:06:02.663Z,98124.16
2022-08-18T04:08:30.273Z,98111.72
2022-08-18T04:11:03.125Z,98110.59
2022-08-18T04:13:41.037Z,98119.75
2022-08-18T04:16:10.869Z,98108.78
2022-08-18T04:18:45.330Z,98112.06
2022-08-18T04:21:25.650Z,98126.41
2022-08-18T04:23:57.781Z,98113.19
2022-08-18T04:26:29.793Z,98123.47
2022-08-18T04:29:04.793Z,98120.69
2022-08-18T04:31:39.229Z,98125.94
2022-08-18T04:34:06.409Z,98132.28
2022-08-18T04:36:37.218Z,98125.72
2022-08-18T04:39:05.556Z,98126.41
2022-08-18T04:41:34.466Z,98121.50
2022-08-18T04:44:03.176Z,98130.31
2022-08-18T04:46:30.452Z,98121.00
2022-08-18T04:49:01.697Z,98131.47
2022-08-18T04:52:30.727Z,98128.69
2022-08-18T04:54:16.785Z,98125.28
2022-08-18T04:56:45.123Z,98122.63
2022-08-18T04:59:18.706Z,98118.72
2022-08-18T05:01:56.887Z,98119.03
2022-08-18T05:04:30.677Z,98127.06
2022-08-18T05:07:05.397Z,98127.06
2022-08-18T05:12:36.811Z,98121.00
2022-08-18T05:15:07.957Z,98117.09
2022-08-18T05:17:43.240Z,98110.53
2022-08-18T05:20:16.791Z,98117.09
2022-08-18T05:22:46.886Z,98117.72
2022-08-18T05:28:00.854Z,98123.28
2022-08-18T05:30:30.612Z,98119.69
2022-08-18T05:33:01.748Z,98116.91
2022-08-18T05:35:38.269Z,98130.94
2022-08-18T05:38:28.876Z,98137.50
2022-08-18T05:41:23.697Z,98128.38
2022-08-18T05:43:52.135Z,98137.50
2022-08-18T05:46:20.885Z,98128.38
2022-08-18T05:48:49.085Z,98122.63
2022-08-18T05:51:42.558Z,98122.81
2022-08-18T05:54:27.939Z,98133.72
2022-08-18T05:56:55.792Z,98130.31
2022-08-18T05:59:29.011Z,98130.13
2022-08-18T06:01:59.966Z,98125.41
2022-08-18T06:04:30.079Z,98129.19
2022-08-18T06:06:58.091Z,98140.28
2022-08-18T06:09:33.225Z,98132.09
2022-08-18T06:12:09.257Z,98137.19
2022-08-18T06:14:38.369Z,98141.91
2022-08-18T06:17:16.539Z,98147.47
2022-08-18T06:20:03.930Z,98141.09
2022-08-18T06:22:59.468Z,98149.13
2022-08-18T06:25:34.495Z,98151.38
2022-08-18T06:28:16.140Z,98152.50
2022-08-18T06:30:43.302Z,98166.25
2022-08-18T06:33:39.920Z,98154.66
2022-08-18T06:36:33.396Z,98157.91
2022-08-18T06:39:25.020Z,98163.16
2022-08-18T06:42:16.715Z,98157.63
2022-08-18T06:44:52.500Z,98165.13
2022-08-18T06:48:03.360Z,98161.22
2022-08-18T06:50:38.470Z,98153.53
2022-08-18T06:53:26.779Z,98153.84
2022-08-18T06:55:56.019Z,98153.84
2022-08-18T06:58:32.385Z,98161.22
2022-08-18T07:01:05.227Z,98149.94
2022-08-18T07:03:35.274Z,98152.88
2022-08-18T07:06:04.710Z,98145.50
2022-08-18T07:08:35.915Z,98155.66
2022-08-18T07:11:18.055Z,98158.91
2022-08-18T07:13:46.296Z,98153.38
2022-08-18T07:16:54.637Z,98145.69
2022-08-18T07:19:20.788Z,98153.38
2022-08-18T07:22:14.780Z,98152.88
2022-08-18T07:24:48.089Z,98146.22
2022-08-18T07:27:19.955Z,98141.78
2022-08-18T07:30:06.859Z,98142.78
2022-08-18T07:32:44.856Z,98141.97
2022-08-18T07:35:15.169Z,98139.72
2022-08-18T07:38:41.598Z,98135.31
2022-08-18T07:41:14.100Z,98132.00
2022-08-18T07:43:52.003Z,98134.16
2022-08-18T07:46:29.844Z,98136.94
2022-08-18T07:48:59.485Z,98132.84
2022-08-18T07:51:45.543Z,98125.84
2022-08-18T07:54:49.045Z,98125.50
2022-08-18T07:57:28.945Z,98131.56
2022-08-18T08:00:57.577Z,98124.38
2022-08-18T08:03:45.354Z,98137.13
2022-08-18T08:06:29.173Z,98134.34
2022-08-18T08:09:08.162Z,98139.59
2022-08-18T08:12:05.643Z,98134.84
2022-08-18T08:14:44.454Z,98141.22
2022-08-18T08:17:19.441Z,98142.03
2022-08-18T08:20:08.836Z,98152.00
2022-08-18T08:23:06.950Z,98156.41
2022-08-18T08:25:47.793Z,98160.31
2022-08-18T08:28:35.529Z,98153.47
2022-08-18T08:31:38.279Z,98161.97
2022-08-18T08:34:16.871Z,98163.22
2022-08-18T08:36:46.080Z,98173.88
2022-08-18T08:39:15.165Z,98177.25
2022-08-18T08:41:51.475Z,98190.19
2022-08-18T08:44:34.251Z,98192.97
2022-08-18T08:47:11.274Z,98184.97
2022-08-18T08:49:39.823Z,98188.25
2022-08-18T08:52:12.984Z,98192.34
2022-08-18T08:54:49.948Z,98192.34
2022-08-18T08:57:17.093Z,98188.75
2022-08-18T09:02:48.364Z,98180.59
2022-08-18T09:05:27.590Z,98171.78
2022-08-18T09:08:31.130Z,98159.06
2022-08-18T09:11:16.804Z,98165.59
2022-08-18T09:14:08.024Z,98168.88
2022-08-18T09:16:56.344Z,98165.59
2022-08-18T09:19:34.234Z,98180.81
2022-08-18T09:25:20.601Z,98176.38
2022-08-18T09:31:21.143Z,98176.09
2022-08-18T09:34:11.179Z,98177.41
2022-08-18T09:37:10.750Z,98175.44
2022-08-18T09:43:23.308Z,98169.91
2022-08-18T09:45:57.743Z,98177.09
2022-08-18T09:48:43.275Z,98170.41
2022-08-18T09:51:17.434Z,98171.72
2022-08-18T09:53:48.196Z,98174.50
2022-08-18T09:56:19.879Z,98166.50
2022-08-18T10:01:52.489Z,98164.22
2022-08-18T10:04:34.119Z,98158.19
2022-08-18T10:07:15.398Z,98158.06
2022-08-18T10:13:09.480Z,98152.00
2022-08-18T10:16:10.609Z,98159.34
2022-08-18T10:19:00.917Z,98152.81
2022-08-18T10:21:31.106Z,98146.31
2022-08-18T10:26:57.431Z,98156.91
2022-08-18T10:29:24.430Z,98146.63
2022-08-18T10:31:57.854Z,98136.66
2022-08-18T10:37:35.216Z,98138.47
2022-08-18T10:40:06.229Z,98128.00
2022-08-18T10:42:37.436Z,98119.38
2022-08-18T10:45:10.867Z,98117.28
2022-08-18T10:47:38.030Z,98116.78
2022-08-18T10:50:09.689Z,98123.97
2022-08-18T10:53:17.109Z,98111.22
2022-08-18T10:55:48.345Z,98107.31
2022-08-18T10:58:44.261Z,98112.22
2022-08-18T11:01:20.317Z,98112.22
2022-08-18T11:04:13.761Z,98103.88
2022-08-18T11:06:43.945Z,98096.38
2022-08-18T11:09:11.999Z,98089.19
2022-08-18T11:11:52.686Z,98101.94
2022-08-18T11:14:39.338Z,98086.75
2022-08-18T11:17:15.993Z,98100.47
2022-08-18T11:19:43.914Z,98093.28
2022-08-18T11:22:33.061Z,98086.59
2022-08-18T11:25:03.378Z,98088.22
2022-08-18T11:27:37.619Z,98082.19
2022-08-18T11:30:08.185Z,98078.25
2022-08-18T11:35:34.292Z,98067.16
2022-08-18T11:38:05.951Z,98074.34
2022-08-18T11:43:41.942Z,98075.34
2022-08-18T11:46:29.922Z,98069.47
2022-08-18T11:48:59.255Z,98067.22
2022-08-18T11:51:37.217Z,98057.25
2022-08-18T11:54:30.041Z,98049.38
2022-08-18T11:57:53.769Z,98048.56
2022-08-18T12:00:47.432Z,98039.94
2022-08-18T12:03:30.985Z,98027.19
2022-08-18T12:06:02.732Z,98029.97
2022-08-18T12:11:28.121Z,98043.69
2022-08-18T12:14:30.784Z,98031.44
2022-08-18T12:16:58.012Z,98026.22
2022-08-18T12:19:31.387Z,98023.44
2022-08-18T12:22:03.901Z,98028.84
2022-08-18T12:24:39.424Z,98025.41
2022-08-18T12:27:12.271Z,98016.59
2022-08-18T12:29:48.419Z,98018.72
2022-08-18T12:32:18.208Z,98013.66
2022-08-18T12:35:09.280Z,98007.78
2022-08-18T12:43:13.231Z,98005.19
2022-08-18T12:45:42.842Z,97999.13
2022-08-18T12:48:09.887Z,98007.63
2022-08-18T12:50:49.837Z,98005.34
2022-08-18T12:53:29.532Z,98002.06
2022-08-18T12:56:13.439Z,97997.84
2022-08-18T12:58:40.769Z,97994.25
2022-08-18T13:01:08.210Z,97998.31
2022-08-18T13:03:35.378Z,98008.47
2022-08-18T13:06:04.865Z,98012.91
2022-08-18T13:08:38.194Z,98003.28
2022-08-18T13:11:23.655Z,98017.16
2022-08-18T13:13:56.210Z,98013.88
2022-08-18T13:16:30.538Z,98007.69
2022-08-18T13:18:58.043Z,98015.50
2022-08-18T13:21:26.592Z,98016.34
2022-08-18T13:24:06.542Z,98027.13
2022-08-18T13:26:38.833Z,98034.13
2022-08-18T13:29:10.283Z,98028.94
2022-08-18T13:31:38.264Z,98037.91
2022-08-18T13:34:11.665Z,98045.09
2022-08-18T13:36:46.031Z,98041.50
2022-08-18T13:39:18.206Z,98047.56
2022-08-18T13:41:46.671Z,98048.84
2022-08-18T13:44:18.821Z,98047.22
2022-08-18T13:46:47.649Z,98051.78
2022-08-18T13:49:15.992Z,98058.34
2022-08-18T13:51:52.147Z,98049.34
2022-08-18T13:54:37.287Z,98043.94
2022-08-18T13:57:06.630Z,98042.81
2022-08-18T13:59:34.337Z,98039.72
2022-08-18T14:02:08.373Z,98045.91
2022-08-18T14:04:42.490Z,98045.91
2022-08-18T14:07:28.073Z,98060.81
2022-08-18T14:10:28.780Z,98044.94
2022-08-18T14:15:50.165Z,98042.81
2022-08-18T14:18:22.243Z,98045.75
2022-08-18T14:21:15.732Z,98037.59
2022-08-18T14:24:01.032Z,98033.66
2022-08-18T14:26:50.144Z,98038.72
2022-08-18T14:29:46.126Z,98047.53
2022-08-18T14:32:06.100Z,98033.97
2022-08-18T14:34:33.189Z,98034.44
2022-08-18T14:37:00.268Z,98031.50
2022-08-18T14:39:29.881Z,98030.19
2022-08-18T14:41:58.810Z,98023.81
2022-08-18T14:44:32.528Z,98031.81
2022-08-18T14:46:59.950Z,98013.00
2022-08-18T14:49:28.112Z,98018.38
2022-08-18T14:51:58.121Z,98006.78
